Time;durP1;ratioP1;P1;durP2;ratioP2;P2;SDS_P1;SDS_P2;PMS_P1;PMS_P2;Temp;Humidity;BMP_temperature;BMP_pressure;BME280_temperature;BME280_humidity;BME280_pressure;Samples;Min_cycle;Max_cycle;Signal;HPM_P1;HPM_P2
2022/08/11 00:00:39;;;;;;;13.88;7.47;;;;;;;21.25;59.95;99312.91;5016316;28;20030;-94
2022/08/11 00:03:07;;;;;;;8.35;7.15;;;;;;;21.15;60.08;99304.00;5016612;28;20026;-93
2022/08/11 00:05:53;;;;;;;12.10;7.70;;;;;;;21.06;60.07;99280.06;5016853;28;20029;-95
2022/08/11 00:08:24;;;;;;;11.13;7.95;;;;;;;21.34;59.90;99321.78;5016422;28;20153;-94
2022/08/11 00:10:54;;;;;;;12.50;9.02;;;;;;;21.36;59.70;99310.00;5016306;28;20053;-94
2022/08/11 00:13:21;;;;;;;9.00;7.55;;;;;;;21.73;58.76;99325.72;5016857;28;20025;-93
2022/08/11 00:15:48;;;;;;;11.20;7.47;;;;;;;21.67;59.19;99333.09;5016893;28;20033;-93
2022/08/11 00:18:15;;;;;;;8.30;7.40;;;;;;;21.68;59.07;99332.66;5016759;28;20025;-93
2022/08/11 00:20:44;;;;;;;9.48;7.95;;;;;;;21.50;59.36;99317.69;5015919;28;20125;-92
2022/08/11 00:23:13;;;;;;;8.93;8.02;;;;;;;21.55;59.60;99334.31;5015654;28;20030;-93
2022/08/11 00:25:41;;;;;;;18.85;9.07;;;;;;;21.12;60.94;99326.75;5015600;28;20037;-94
2022/08/11 00:28:27;;;;;;;10.35;8.00;;;;;;;20.75;62.06;99326.81;5015822;28;20168;-91
2022/08/11 00:30:55;;;;;;;11.32;8.15;;;;;;;20.30;63.95;99330.09;5007160;28;20196;-92
2022/08/11 00:33:23;;;;;;;11.40;9.02;;;;;;;20.29;63.80;99328.47;4999073;28;20558;-94
2022/08/11 00:35:51;;;;;;;11.55;8.57;;;;;;;20.12;64.76;99324.41;4999896;28;20057;-94
2022/08/11 00:38:22;;;;;;;13.43;8.50;;;;;;;20.33;64.17;99331.28;5000360;28;20032;-93
2022/08/11 00:41:12;;;;;;;13.77;8.77;;;;;;;20.59;63.29;99334.97;4999944;28;20143;-92
2022/08/11 00:44:01;;;;;;;13.50;8.15;;;;;;;20.73;62.75;99340.63;4999775;28;20168;-93
2022/08/11 00:46:26;;;;;;;9.70;8.57;;;;;;;20.45;63.41;99342.28;4955307;28;20144;-93
2022/08/11 00:49:08;;;;;;;10.60;8.68;;;;;;;20.51;63.27;99334.13;5000771;28;20010;-93
2022/08/11 00:51:43;;;;;;;14.35;9.13;;;;;;;20.83;62.37;99336.16;5000647;28;20184;-93
2022/08/11 00:54:20;;;;;;;9.00;7.97;;;;;;;20.95;61.65;99329.25;5002282;28;20022;-94
2022/08/11 00:57:05;;;;;;;13.32;8.18;;;;;;;21.16;60.91;99336.91;5003185;28;20056;-94
2022/08/11 00:59:58;;;;;;;11.10;8.50;;;;;;;21.25;60.62;99333.63;5003231;28;20128;-93
2022/08/11 01:03:04;;;;;;;10.27;7.85;;;;;;;21.32;60.52;99344.97;4984181;28;20097;-93
2022/08/11 01:05:50;;;;;;;9.30;8.23;;;;;;;21.43;59.83;99335.59;4981948;28;20022;-94
2022/08/11 01:08:34;;;;;;;14.10;8.32;;;;;;;21.34;60.16;99338.06;4983037;28;20465;-95
2022/08/11 01:11:33;;;;;;;11.63;8.05;;;;;;;21.36;60.18;99321.41;4994710;28;20033;-93
2022/08/11 01:14:12;;;;;;;12.60;8.15;;;;;;;21.41;60.34;99324.63;5002707;28;20034;-93
2022/08/11 01:16:47;;;;;;;10.82;9.32;;;;;;;21.57;59.73;99329.00;5003366;28;20038;-92
2022/08/11 01:19:50;;;;;;;11.13;8.32;;;;;;;21.79;59.21;99324.06;5003792;28;20034;-94
2022/08/11 01:22:18;;;;;;;11.15;8.80;;;;;;;21.89;58.72;99325.22;5003980;28;20077;-93
2022/08/11 01:25:20;;;;;;;10.00;7.22;;;;;;;21.82;59.16;99325.25;5004894;28;20087;-93
2022/08/11 01:28:24;;;;;;;8.70;7.88;;;;;;;21.82;58.95;99317.53;4906610;29;20499;-94
2022/08/11 01:31:08;;;;;;;8.63;7.82;;;;;;;21.98;58.04;99314.19;5012940;28;20061;-95
2022/08/11 01:34:19;;;;;;;8.00;7.30;;;;;;;22.11;57.70;99317.34;5019786;28;20038;-93
2022/08/11 01:37:25;;;;;;;10.25;7.45;;;;;;;22.08;58.30;99318.16;5019648;28;20036;-92
2022/08/11 01:40:03;;;;;;;11.68;7.53;;;;;;;22.10;57.71;99315.72;5018739;28;20029;-93
2022/08/11 01:46:11;;;;;;;10.60;7.75;;;;;;;22.08;57.95;99314.50;5039311;28;20091;-93
2022/08/11 01:48:56;;;;;;;8.50;7.38;;;;;;;22.08;58.02;99303.13;5037352;28;20029;-93
2022/08/11 01:51:24;;;;;;;10.38;7.75;;;;;;;22.14;57.67;99315.69;5027560;28;20033;-93
2022/08/11 01:54:08;;;;;;;11.38;7.95;;;;;;;22.09;57.49;99301.91;5020845;28;20033;-94
2022/08/11 01:56:40;;;;;;;13.82;9.20;;;;;;;22.15;57.57;99306.75;5021593;28;20182;-94
2022/08/11 01:59:17;;;;;;;9.60;7.57;;;;;;;22.21;57.23;99297.75;5021314;28;20200;-94
2022/08/11 02:02:18;;;;;;;10.05;7.65;;;;;;;22.10;57.70;99304.31;5009433;28;20555;-93
2022/08/11 02:04:50;;;;;;;9.80;7.72;;;;;;;22.09;57.11;99314.09;5005195;28;20045;-92
2022/08/11 02:07:57;;;;;;;11.38;7.07;;;;;;;22.07;57.30;99316.56;5011284;28;20033;-95
2022/08/11 02:13:57;;;;;;;8.93;8.02;;;;;;;21.46;58.80;99304.25;5038598;28;20101;-94
2022/08/11 02:16:23;;;;;;;8.35;7.55;;;;;;;21.86;57.08;99306.13;5039559;28;20463;-93
2022/08/11 02:25:10;;;;;;;9.23;7.15;;;;;;;22.01;55.58;99298.28;5039845;28;20095;-94
2022/08/11 02:27:52;;;;;;;7.03;6.30;;;;;;;21.99;55.44;99292.19;5037955;28;20034;-94
2022/08/11 02:30:24;;;;;;;8.77;6.35;;;;;;;22.06;54.76;99295.00;5037215;28;20049;-92
2022/08/11 02:36:07;;;;;;;8.90;7.00;;;;;;;21.89;55.16;99293.91;5039694;28;20061;-93
2022/08/11 02:38:59;;;;;;;14.77;6.75;;;;;;;21.87;55.16;99299.22;5038045;28;20029;-94
2022/08/11 02:45:07;;;;;;;8.55;6.63;;;;;;;21.83;55.04;99295.56;5040060;28;20199;-94
2022/08/11 02:51:15;;;;;;;7.68;6.47;;;;;;;21.88;55.04;99300.81;5037460;28;20125;-94
2022/08/11 02:54:02;;;;;;;11.68;7.70;;;;;;;22.06;54.65;99299.88;5028637;28;20096;-93
2022/08/11 02:56:55;;;;;;;8.85;6.95;;;;;;;21.94;54.89;99292.66;5022610;28;20092;-95
2022/08/11 02:59:50;;;;;;;7.90;6.57;;;;;;;21.72;55.63;99301.31;5022195;28;20027;-93
2022/08/11 03:02:31;;;;;;;8.00;7.18;;;;;;;21.85;55.32;99293.13;5020747;28;20022;-94
2022/08/11 03:05:06;;;;;;;14.30;7.10;;;;;;;21.97;55.16;99291.81;5020613;28;20081;-95
2022/08/11 03:08:00;;;;;;;9.85;6.70;;;;;;;21.79;55.54;99303.31;5023255;28;20025;-94
2022/08/11 03:16:43;;;;;;;13.82;7.45;;;;;;;21.93;55.14;99302.44;5022178;28;20029;-94
2022/08/11 03:16:44;;;;;;;18.60;6.82;;;;;;;21.92;55.54;99304.44;5042810;28;20097;-94
2022/08/11 03:19:19;;;;;;;10.43;6.60;;;;;;;22.10;55.20;99307.16;5031283;28;20025;-94
2022/08/11 03:22:09;;;;;;;33.28;10.13;;;;;;;21.95;55.51;99303.59;5025115;28;20116;-93
2022/08/11 03:24:52;;;;;;;9.35;7.45;;;;;;;21.86;55.26;99312.63;5018937;28;20044;-93
2022/08/11 03:27:59;;;;;;;12.85;7.10;;;;;;;21.71;55.26;99306.19;5020036;28;20048;-94
2022/08/11 03:30:36;;;;;;;9.65;6.50;;;;;;;21.61;55.33;99304.22;5009850;28;20046;-94
2022/08/11 03:36:17;;;;;;;8.52;6.30;;;;;;;21.53;55.55;99308.31;4997055;28;20044;-93
2022/08/11 03:39:04;;;;;;;9.35;7.25;;;;;;;21.50;55.76;99306.31;4978634;28;20023;-94
2022/08/11 03:41:43;;;;;;;6.85;6.15;;;;;;;21.47;56.06;99313.63;4990128;28;20088;-94
2022/08/11 03:44:43;;;;;;;17.65;7.28;;;;;;;21.43;56.40;99318.53;5000108;28;20477;-95
2022/08/11 03:47:32;;;;;;;14.93;7.28;;;;;;;21.33;56.85;99314.50;5017950;28;20026;-96
2022/08/11 03:50:23;;;;;;;9.60;6.50;;;;;;;21.56;56.26;99316.00;5002656;28;20060;-94
2022/08/11 03:53:04;;;;;;;11.00;6.60;;;;;;;21.67;55.79;99316.78;5002969;28;20073;-93
2022/08/11 03:55:55;;;;;;;8.85;6.60;;;;;;;21.83;55.39;99321.16;5008113;28;20034;-94
2022/08/11 03:58:39;;;;;;;26.88;7.35;;;;;;;21.76;55.95;99316.34;5009318;28;20029;-94
2022/08/11 04:01:44;;;;;;;15.85;7.82;;;;;;;21.83;55.37;99322.00;5007464;28;20030;-95
2022/08/11 04:04:13;;;;;;;14.10;7.40;;;;;;;21.81;55.54;99315.91;5008236;28;20037;-94
2022/08/11 04:07:08;;;;;;;32.75;8.90;;;;;;;21.64;56.35;99317.59;5004614;28;20080;-94
2022/08/11 04:09:55;;;;;;;10.65;7.03;;;;;;;21.55;56.90;99312.38;5007908;28;20102;-95
2022/08/11 04:12:50;;;;;;;15.55;8.00;;;;;;;21.43;57.37;99319.31;5007619;28;20101;-94
2022/08/11 04:18:33;;;;;;;15.33;7.40;;;;;;;21.43;57.72;99322.16;5030929;28;20028;-94
2022/08/11 04:21:15;;;;;;;14.52;7.95;;;;;;;21.63;57.05;99321.69;5012898;28;20452;-94
2022/08/11 04:24:05;;;;;;;19.20;8.13;;;;;;;21.57;57.20;99304.22;5014122;28;20025;-95
2022/08/11 04:26:47;;;;;;;15.73;7.38;;;;;;;21.76;56.76;99326.94;5030928;28;20034;-93
2022/08/11 04:29:53;;;;;;;11.52;7.85;;;;;;;21.70;56.67;99327.34;5014301;28;20037;-94
2022/08/11 04:32:37;;;;;;;14.45;7.97;;;;;;;21.81;56.79;99329.31;5016156;28;20029;-94
2022/08/11 04:35:03;;;;;;;8.43;6.95;;;;;;;21.96;56.47;99330.88;5038811;23;20057;-75
2022/08/11 04:37:37;;;;;;;11.88;6.50;;;;;;;21.83;56.72;99335.41;5050491;28;20518;-76
2022/08/11 04:40:16;;;;;;;9.15;6.80;;;;;;;21.76;57.00;99324.09;5051702;28;20021;-76
2022/08/11 04:43:30;;;;;;;17.00;6.78;;;;;;;21.71;57.27;99319.63;5052983;28;20487;-74
2022/08/11 04:46:13;;;;;;;22.98;8.00;;;;;;;21.92;56.82;99315.03;5052336;28;20058;-75
2022/08/11 05:03:18;;;;;;;16.02;8.25;;;;;;;21.99;57.51;99314.97;5052464;28;20035;-75
2022/08/11 05:06:06;;;;;;;12.32;7.40;;;;;;;22.16;57.09;99321.78;5060983;28;20093;-75
2022/08/11 05:08:52;;;;;;;15.13;7.63;;;;;;;22.05;58.07;99318.19;5064629;28;20048;-74
2022/08/11 05:11:32;;;;;;;12.48;6.80;;;;;;;22.06;57.90;99317.78;5053570;28;20028;-75
2022/08/11 05:36:43;;;;;;;25.23;8.10;;;;;;;22.28;58.08;99326.19;5072649;28;20066;-75
2022/08/11 05:56:26;;;;;;;8.88;7.80;;;;;;;23.27;54.57;99321.16;5071118;28;20032;-80
2022/08/11 05:58:54;;;;;;;9.13;7.63;;;;;;;23.27;54.44;99309.75;5072249;28;20483;-78
2022/08/11 06:01:32;;;;;;;11.40;7.88;;;;;;;23.44;54.52;99302.22;5062395;28;20033;-75
2022/08/11 06:04:15;;;;;;;11.45;8.50;;;;;;;23.76;53.61;99315.25;5068236;28;20090;-74
2022/08/11 06:06:58;;;;;;;8.48;7.35;;;;;;;23.65;53.03;99312.56;5064272;28;20033;-73
2022/08/11 06:09:29;;;;;;;9.98;7.32;;;;;;;23.82;53.12;99298.44;5070954;28;20077;-72
2022/08/11 06:12:01;;;;;;;14.70;7.65;;;;;;;23.79;53.08;99302.16;5054094;28;20025;-73
2022/08/11 06:14:28;;;;;;;9.20;6.68;;;;;;;23.73;53.61;99313.25;5051637;28;20035;-73
2022/08/11 06:16:59;;;;;;;9.05;7.07;;;;;;;23.80;52.91;99309.47;5068894;28;20107;-73
2022/08/11 06:19:37;;;;;;;8.27;6.30;;;;;;;24.07;52.82;99303.00;5066507;28;20399;-72
2022/08/11 06:22:05;;;;;;;11.90;6.93;;;;;;;24.37;52.33;99304.13;5071043;28;20506;-73
2022/08/11 06:24:33;;;;;;;32.47;8.13;;;;;;;24.47;51.76;99300.28;5071623;28;20059;-72
2022/08/11 06:26:59;;;;;;;9.98;6.93;;;;;;;24.65;51.17;99299.16;5070332;28;20110;-73
2022/08/11 06:29:27;;;;;;;7.85;7.05;;;;;;;24.52;50.88;99296.13;5070801;28;20108;-72
2022/08/11 06:32:04;;;;;;;12.73;7.00;;;;;;;24.21;51.54;99296.25;5070569;28;20039;-73
2022/08/11 06:34:54;;;;;;;10.02;6.70;;;;;;;24.49;50.99;99292.06;5051558;28;20040;-73
2022/08/11 06:37:42;;;;;;;8.60;7.60;;;;;;;24.59;51.22;99298.84;5069456;28;20029;-73
2022/08/11 06:40:24;;;;;;;8.50;6.60;;;;;;;24.77;50.40;99310.00;5050472;28;20033;-73
2022/08/11 06:42:55;;;;;;;9.88;6.70;;;;;;;24.65;51.95;99302.03;5069147;28;20517;-73
2022/08/11 06:45:39;;;;;;;18.90;7.32;;;;;;;24.78;50.93;99299.34;5068746;28;20024;-73
2022/08/11 06:48:09;;;;;;;15.70;7.28;;;;;;;24.83;50.69;99300.91;5069291;28;20159;-73
2022/08/11 06:53:21;;;;;;;12.00;6.55;;;;;;;25.12;49.83;99295.44;5071699;28;20111;-73
2022/08/11 07:01:45;;;;;;;10.35;6.65;;;;;;;25.30;48.50;99297.94;5066760;28;20111;-73
2022/08/11 07:04:13;;;;;;;13.18;7.05;;;;;;;25.07;48.35;99293.88;5052819;28;20021;-73
2022/08/11 07:15:42;;;;;;;7.63;6.70;;;;;;;25.51;49.00;99296.69;5052224;28;20032;-72
2022/08/11 07:29:56;;;;;;;8.88;6.15;;;;;;;25.99;46.15;99298.50;4997005;28;20453;-75
2022/08/11 07:32:29;;;;;;;7.50;6.32;;;;;;;26.16;46.18;99302.19;5061519;28;20052;-75
2022/08/11 07:35:01;;;;;;;13.20;6.90;;;;;;;26.12;46.27;99302.28;5070273;28;20033;-75
2022/08/11 07:37:32;;;;;;;8.77;6.90;;;;;;;26.42;45.83;99303.19;5069261;28;20028;-75
2022/08/11 07:39:58;;;;;;;15.57;6.32;;;;;;;26.46;45.29;99306.78;5071105;28;20051;-75
2022/08/11 07:42:30;;;;;;;9.20;7.03;;;;;;;26.61;44.83;99306.41;5065625;28;20096;-74
2022/08/11 07:53:14;;;;;;;6.20;5.60;;;;;;;26.64;44.15;99299.78;5069737;28;20102;-71
2022/08/11 07:55:42;;;;;;;7.05;6.40;;;;;;;26.89;44.75;99295.44;5070133;28;20024;-73
2022/08/11 08:17:49;;;;;;;7.47;6.78;;;;;;;28.18;42.01;99294.94;5074266;28;20311;-73
2022/08/11 08:20:16;;;;;;;9.90;5.90;;;;;;;28.50;40.19;99293.03;5056171;28;20437;-74
2022/08/11 08:22:43;;;;;;;11.57;5.70;;;;;;;28.26;39.56;99284.00;5072884;28;20387;-73
2022/08/11 08:25:09;;;;;;;8.32;5.68;;;;;;;28.35;39.72;99274.69;5073917;28;20099;-73
2022/08/11 08:27:35;;;;;;;7.70;6.35;;;;;;;28.50;40.38;99283.63;5073799;28;20031;-73
2022/08/11 08:32:50;;;;;;;6.07;5.47;;;;;;;29.15;38.64;99278.44;5067916;28;20427;-73
2022/08/11 08:35:16;;;;;;;5.97;5.35;;;;;;;29.23;38.00;99276.91;5053721;28;20040;-73
2022/08/11 08:37:42;;;;;;;10.70;5.43;;;;;;;29.29;38.00;99275.03;5053794;28;20407;-74
2022/08/11 08:40:09;;;;;;;6.13;5.45;;;;;;;29.63;37.95;99277.50;5070025;28;20051;-73
2022/08/11 08:42:40;;;;;;;6.82;5.30;;;;;;;29.79;38.61;99268.59;5072371;28;20075;-73
2022/08/11 08:45:15;;;;;;;5.75;5.20;;;;;;;29.91;37.58;99280.50;5073838;28;20020;-73
2022/08/11 08:47:44;;;;;;;7.35;5.80;;;;;;;29.26;37.88;99273.09;5054959;28;20024;-73
2022/08/11 08:50:18;;;;;;;6.68;5.72;;;;;;;29.54;37.24;99276.16;5054605;28;20103;-73
2022/08/11 08:53:05;;;;;;;5.75;5.20;;;;;;;29.68;36.68;99268.22;5072121;28;20107;-73
2022/08/11 08:55:32;;;;;;;7.38;4.70;;;;;;;30.12;35.78;99271.00;5069754;28;20036;-73
2022/08/11 08:57:59;;;;;;;11.40;4.70;;;;;;;30.37;34.63;99277.78;5071629;28;20032;-73
2022/08/11 09:00:38;;;;;;;9.35;5.90;;;;;;;30.31;34.79;99276.81;5074098;28;20032;-71
2022/08/11 09:03:03;;;;;;;6.80;5.05;;;;;;;29.55;33.51;99268.34;5072973;28;20388;-72
2022/08/11 09:05:30;;;;;;;5.18;4.25;;;;;;;29.98;34.70;99268.69;5067677;28;20028;-73
2022/08/11 09:07:57;;;;;;;5.50;4.95;;;;;;;30.13;34.08;99266.06;5050441;28;20024;-72
2022/08/11 09:10:24;;;;;;;7.55;4.63;;;;;;;30.05;34.55;99262.66;5052704;28;20120;-71
2022/08/11 09:12:50;;;;;;;4.97;4.30;;;;;;;29.65;34.14;99246.13;5070392;28;20028;-71
2022/08/11 09:15:17;;;;;;;5.90;4.70;;;;;;;29.55;35.80;99253.94;5051215;28;20036;-72
2022/08/11 09:17:45;;;;;;;5.22;3.95;;;;;;;29.95;34.21;99256.00;5051357;28;20028;-71
2022/08/11 09:20:23;;;;;;;5.47;4.22;;;;;;;30.07;33.68;99242.00;5065007;28;20406;-70
2022/08/11 09:28:22;;;;;;;12.43;6.60;;;;;;;29.91;34.60;99245.91;5071969;28;20526;-72
2022/08/11 09:30:53;;;;;;;7.93;4.30;;;;;;;30.63;33.33;99242.91;5054090;28;20044;-71
2022/08/11 09:33:24;;;;;;;5.75;4.32;;;;;;;30.72;32.14;99249.97;5064647;28;20040;-70
2022/08/11 09:35:51;;;;;;;5.90;4.32;;;;;;;30.65;32.28;99246.13;5069382;28;20043;-75
2022/08/11 09:41:06;;;;;;;13.07;5.43;;;;;;;30.95;32.58;99234.91;5069441;28;20040;-73
2022/08/11 09:46:27;;;;;;;8.20;4.93;;;;;;;31.06;32.72;99236.50;5061012;28;20036;-72
2022/08/11 09:48:57;;;;;;;4.40;4.00;;;;;;;31.23;31.76;99234.88;5065792;28;20036;-70
2022/08/11 09:51:24;;;;;;;6.30;4.22;;;;;;;31.36;31.77;99233.88;5052270;28;20388;-71
2022/08/11 09:53:50;;;;;;;11.25;4.15;;;;;;;31.38;31.06;99220.56;5063864;28;20055;-72
2022/08/11 09:59:04;;;;;;;5.25;4.22;;;;;;;31.51;31.48;99219.56;5054837;28;20075;-70
2022/08/11 10:01:41;;;;;;;4.35;3.90;;;;;;;30.64;31.50;99214.88;5057627;28;20479;-71
2022/08/11 10:04:16;;;;;;;5.22;4.07;;;;;;;31.45;32.21;99224.41;5047609;28;20040;-71
2022/08/11 10:07:00;;;;;;;6.70;4.20;;;;;;;30.63;31.01;99207.47;5068033;28;20067;-69
2022/08/11 10:09:28;;;;;;;6.22;4.20;;;;;;;30.08;32.00;99215.56;5049610;28;20024;-68
2022/08/11 10:11:57;;;;;;;7.03;4.63;;;;;;;29.84;32.94;99216.13;5067522;28;20036;-69
2022/08/11 10:17:09;;;;;;;5.80;4.05;;;;;;;31.19;31.78;99225.56;5061441;28;20455;-69
2022/08/11 10:19:39;;;;;;;5.63;4.45;;;;;;;31.32;31.57;99216.75;5065767;28;20031;-70
2022/08/11 10:27:38;;;;;;;4.82;4.32;;;;;;;31.70;30.51;99208.72;5070457;28;20107;-69
2022/08/11 10:35:34;;;;;;;6.20;4.93;;;;;;;31.15;31.25;99195.25;5066726;28;20056;-69
2022/08/11 10:38:00;;;;;;;5.28;4.88;;;;;;;31.40;31.16;99179.66;5068300;28;20425;-69
2022/08/11 10:40:27;;;;;;;4.82;4.43;;;;;;;31.51;31.39;99182.81;5068414;28;20083;-69
2022/08/11 10:43:11;;;;;;;6.18;4.22;;;;;;;32.07;30.23;99197.00;5069060;28;20028;-69
2022/08/11 10:48:25;;;;;;;4.60;4.22;;;;;;;31.78;29.81;99189.75;5069460;28;20067;-69
2022/08/11 10:59:25;;;;;;;4.63;4.22;;;;;;;31.73;29.67;99172.28;5060496;28;20478;-71
2022/08/11 11:01:52;;;;;;;6.47;4.63;;;;;;;31.31;30.07;99174.69;5043070;28;20103;-71
2022/08/11 11:04:26;;;;;;;10.90;4.78;;;;;;;31.63;29.88;99172.31;5042225;28;20033;-71
2022/08/11 11:07:13;;;;;;;8.38;4.35;;;;;;;31.46;30.03;99174.00;5068876;28;20031;-71
2022/08/11 11:09:57;;;;;;;4.72;4.32;;;;;;;31.01;30.92;99164.94;5064988;28;20048;-71
2022/08/11 11:18:05;;;;;;;5.40;3.67;;;;;;;32.10;29.38;99156.81;5057180;28;20036;-71
2022/08/11 11:20:47;;;;;;;9.10;4.80;;;;;;;32.42;28.11;99157.25;5049214;28;20037;-71
2022/08/11 11:23:37;;;;;;;4.70;4.30;;;;;;;32.21;28.47;99154.97;5051320;28;20111;-71
2022/08/11 11:26:27;;;;;;;4.53;4.05;;;;;;;32.22;26.96;99147.88;5066660;28;20023;-71
2022/08/11 11:29:09;;;;;;;;;;;;;;;32.12;27.09;99139.78;5068723;28;20047;-70
2022/08/11 11:31:38;;;;;;;4.47;4.07;;;;;;;32.56;27.43;99138.34;5068492;28;19912;-71
2022/08/11 11:34:12;;;;;;;5.15;4.65;;;;;;;31.72;30.35;99133.88;5067378;28;20037;-72
2022/08/11 11:36:53;;;;;;;4.25;3.85;;;;;;;32.42;29.41;99139.88;5066739;28;20040;-71
2022/08/11 11:39:21;;;;;;;4.50;4.10;;;;;;;32.05;29.51;99138.06;5064641;28;20024;-70
2022/08/11 11:41:53;;;;;;;5.20;4.47;;;;;;;32.44;29.01;99137.28;5049714;28;20027;-70
2022/08/11 11:44:21;;;;;;;5.30;4.75;;;;;;;32.01;29.10;99129.56;5046916;28;20095;-71
2022/08/11 11:46:48;;;;;;;7.32;4.13;;;;;;;32.04;29.56;99124.91;5067473;28;20056;-70
2022/08/11 11:49:17;;;;;;;5.57;4.07;;;;;;;32.90;28.23;99121.59;5068618;28;20031;-70
2022/08/11 11:51:48;;;;;;;6.20;4.13;;;;;;;33.13;27.57;99124.91;5071183;28;20484;-71
2022/08/11 11:54:15;;;;;;;8.35;4.20;;;;;;;33.40;27.84;99117.94;5074474;28;20055;-70
2022/08/11 11:56:42;;;;;;;5.75;3.97;;;;;;;33.63;26.96;99114.66;5067227;28;20020;-72
2022/08/11 12:02:02;;;;;;;5.57;3.47;;;;;;;33.44;25.86;99104.06;5060161;28;20039;-71
2022/08/11 12:04:28;;;;;;;4.20;3.50;;;;;;;33.60;24.95;99099.06;5044755;28;20048;-71
2022/08/11 12:08:08;;;;;;;6.50;4.10;;;;;;;33.61;26.13;99100.66;5062103;28;20787;-71
2022/08/11 12:09:40;;;;;;;11.25;4.72;;;;;;;33.74;26.01;99097.41;5065511;28;20025;-71
2022/08/11 12:14:52;;;;;;;10.77;3.85;;;;;;;33.72;24.54;99097.09;5060458;28;20036;-71
2022/08/11 12:17:18;;;;;;;3.28;2.97;;;;;;;33.91;24.42;99088.94;5053165;28;20025;-71
2022/08/11 12:19:44;;;;;;;5.18;3.25;;;;;;;33.99;24.16;99090.13;5040928;28;20024;-71
2022/08/11 12:27:39;;;;;;;4.30;2.85;;;;;;;33.84;23.58;99087.25;5066827;28;20406;-71
2022/08/11 12:30:07;;;;;;;4.63;3.10;;;;;;;33.89;24.25;99080.75;5045232;28;20502;-71
2022/08/11 12:32:36;;;;;;;4.32;3.40;;;;;;;34.10;23.26;99082.88;5045604;28;20024;-71
2022/08/11 12:35:03;;;;;;;3.30;3.10;;;;;;;34.31;24.21;99092.34;5060436;28;20058;-71
2022/08/11 12:37:38;;;;;;;4.85;3.55;;;;;;;33.35;23.91;99083.09;5047421;28;20100;-71
2022/08/11 12:45:46;;;;;;;5.10;3.17;;;;;;;33.01;24.58;99075.50;5061840;28;20126;-71
2022/08/11 12:54:07;;;;;;;3.67;3.38;;;;;;;33.07;23.96;99080.56;5063650;28;20047;-70
2022/08/11 13:05:03;;;;;;;5.47;3.35;;;;;;;32.44;25.10;99062.88;5071943;28;20115;-70
2022/08/11 13:07:31;;;;;;;3.40;3.10;;;;;;;33.21;24.10;99059.44;5053319;28;20123;-73
2022/08/11 13:10:00;;;;;;;4.07;3.67;;;;;;;33.10;24.40;99056.38;5072483;28;20028;-72
2022/08/11 13:12:49;;;;;;;14.38;5.50;;;;;;;33.21;23.92;99049.97;5071627;28;20024;-71
2022/08/11 13:15:18;;;;;;;3.60;3.25;;;;;;;33.18;24.42;99058.38;5048176;28;20020;-72
2022/08/11 13:17:47;;;;;;;7.45;3.78;;;;;;;33.60;24.81;99050.56;5072553;28;20584;-72
2022/08/11 13:20:18;;;;;;;4.45;4.05;;;;;;;33.94;24.97;99046.50;5072025;28;20076;-71
2022/08/11 13:22:48;;;;;;;5.93;4.05;;;;;;;33.92;25.08;99052.03;5072438;28;20024;-72
2022/08/11 13:25:16;;;;;;;8.40;4.07;;;;;;;34.13;24.21;99047.84;5049796;28;20064;-69
2022/08/11 13:27:46;;;;;;;3.83;3.53;;;;;;;34.31;24.41;99054.63;5069378;28;20059;-71
2022/08/11 13:33:00;;;;;;;7.05;3.97;;;;;;;34.13;24.38;99052.84;5068765;28;19920;-70
2022/08/11 13:35:28;;;;;;;3.28;2.95;;;;;;;34.02;24.55;99057.19;5068544;28;20456;-71
2022/08/11 13:37:55;;;;;;;4.82;3.58;;;;;;;34.16;23.59;99057.63;5060230;28;20029;-71
2022/08/11 13:40:21;;;;;;;3.67;3.38;;;;;;;34.16;23.81;99051.84;5067452;28;20051;-73
2022/08/11 13:42:48;;;;;;;5.00;3.10;;;;;;;33.83;24.60;99047.19;5072122;28;20096;-73
2022/08/11 13:45:14;;;;;;;13.05;3.78;;;;;;;33.67;25.12;99054.34;5067955;28;20021;-72
2022/08/11 13:47:41;;;;;;;8.38;3.80;;;;;;;33.74;25.08;99060.50;5068894;28;20024;-72
2022/08/11 13:50:09;;;;;;;10.32;4.82;;;;;;;33.56;25.28;99052.09;5058614;28;20086;-71
2022/08/11 13:52:38;;;;;;;4.65;4.25;;;;;;;33.42;26.01;99050.81;5072083;28;20091;-72
2022/08/11 13:55:06;;;;;;;4.93;3.80;;;;;;;33.14;25.66;99040.41;5071624;28;20028;-73
2022/08/11 13:57:32;;;;;;;5.13;4.20;;;;;;;33.02;25.88;99053.09;5061756;28;20165;-71
2022/08/11 14:00:08;;;;;;;5.90;4.65;;;;;;;32.86;26.27;99042.81;5072448;28;20028;-73
2022/08/11 14:02:40;;;;;;;6.35;4.20;;;;;;;33.01;25.88;99042.81;5072222;28;20569;-74
2022/08/11 14:05:24;;;;;;;8.27;5.03;;;;;;;33.14;25.86;99040.41;5072250;28;20033;-72
2022/08/11 14:07:52;;;;;;;7.28;5.15;;;;;;;33.11;25.60;99044.31;5072430;28;20491;-73
2022/08/11 14:10:23;;;;;;;6.78;6.07;;;;;;;33.19;25.33;99038.88;5071799;28;20457;-72
2022/08/11 14:15:44;;;;;;;3.47;2.88;;;;;;;33.05;25.23;99034.72;5052614;28;20127;-72
2022/08/11 14:18:15;;;;;;;;;;;;;;;33.04;25.38;99036.81;5072926;28;20406;-72
2022/08/11 14:23:46;;;;;;;5.60;3.33;;;;;;;33.06;25.38;99039.19;5072002;28;20514;-72
2022/08/11 14:26:27;;;;;;;7.80;3.20;;;;;;;33.20;25.87;99031.78;5071242;28;20024;-72
2022/08/11 14:29:09;;;;;;;4.78;3.13;;;;;;;33.18;25.21;99038.09;5072362;28;20175;-72
2022/08/11 14:31:44;;;;;;;8.55;3.10;;;;;;;33.47;24.94;99039.34;5071995;28;20425;-73
2022/08/11 14:34:13;;;;;;;4.85;3.17;;;;;;;33.60;25.20;99046.88;5072141;28;20124;-73
2022/08/11 14:36:42;;;;;;;4.67;3.13;;;;;;;33.63;25.57;99045.84;5064223;28;20094;-73
2022/08/11 14:39:11;;;;;;;6.47;2.40;;;;;;;33.51;25.57;99049.91;5046123;28;20050;-74
2022/08/11 14:47:14;;;;;;;6.00;4.05;;;;;;;33.43;25.61;99050.31;5071368;28;20501;-73
2022/08/11 14:49:41;;;;;;;6.07;4.38;;;;;;;33.42;25.73;99053.72;5053845;28;20131;-73
2022/08/11 14:52:15;;;;;;;8.63;6.47;;;;;;;33.44;26.09;99049.00;5054136;28;20550;-73
2022/08/11 14:57:37;;;;;;;34.40;6.60;;;;;;;32.30;26.80;99055.75;5071052;28;20109;-72
2022/08/11 15:00:05;;;;;;;31.25;5.75;;;;;;;32.66;27.25;99053.00;5049073;28;20029;-71
2022/08/11 15:05:21;;;;;;;4.25;3.30;;;;;;;32.69;26.94;99057.00;5071217;28;20043;-72
2022/08/11 15:07:47;;;;;;;30.05;5.32;;;;;;;33.07;26.95;99058.19;5075225;28;20024;-72
2022/08/11 15:10:15;;;;;;;16.40;3.92;;;;;;;32.51;27.44;99072.44;5071194;28;20035;-73
2022/08/11 15:12:41;;;;;;;7.05;3.90;;;;;;;31.39;29.77;99076.94;5071549;28;20501;-72
2022/08/11 15:17:55;;;;;;;4.75;3.50;;;;;;;29.98;33.60;99072.66;5065839;28;20035;-72
2022/08/11 15:26:02;;;;;;;15.02;4.70;;;;;;;29.43;37.70;99079.91;5070238;28;20512;-73
2022/08/11 15:39:37;;;;;;;17.38;4.70;;;;;;;28.34;40.43;99106.31;5063903;28;20044;-73
2022/08/11 15:47:58;;;;;;;15.18;5.35;;;;;;;25.88;48.06;99156.34;5071253;28;20484;-70
2022/08/11 15:50:29;;;;;;;15.80;5.05;;;;;;;25.13;50.25;99173.22;5070913;28;20483;-70
2022/08/11 15:53:22;;;;;;;10.88;6.88;;;;;;;25.03;50.59;99170.16;5068233;28;20113;-69
2022/08/11 15:55:49;;;;;;;5.20;4.70;;;;;;;25.35;50.37;99177.22;5053174;28;20415;-68
2022/08/11 16:04:11;;;;;;;8.60;5.93;;;;;;;24.45;53.31;99188.44;5070905;28;20047;-72
2022/08/11 16:06:59;;;;;;;6.97;5.82;;;;;;;24.18;54.33;99211.38;5070416;28;20094;-69
2022/08/11 16:09:46;;;;;;;9.68;6.28;;;;;;;23.95;54.84;99207.25;5070548;28;20028;-72
2022/08/11 16:12:18;;;;;;;13.02;6.85;;;;;;;24.72;52.68;99221.81;5071490;28;20086;-73
2022/08/11 16:17:45;;;;;;;13.52;7.18;;;;;;;25.66;53.10;99233.41;5057234;28;20468;-73
2022/08/11 16:20:13;;;;;;;15.57;6.47;;;;;;;25.18;57.93;99244.22;5050270;28;20128;-72
2022/08/11 16:22:45;;;;;;;13.30;6.65;;;;;;;25.06;58.99;99237.91;5050118;28;20491;-71
2022/08/11 16:25:16;;;;;;;14.50;5.50;;;;;;;25.64;54.34;99233.81;5067122;28;20021;-68
2022/08/11 16:27:46;;;;;;;9.05;4.85;;;;;;;26.26;53.79;99240.97;5065504;28;20418;-69
2022/08/11 16:30:13;;;;;;;14.55;7.13;;;;;;;26.58;56.73;99239.28;5068672;28;20388;-71
2022/08/11 16:32:42;;;;;;;12.00;6.13;;;;;;;26.52;55.92;99254.63;5046191;28;20024;-71
2022/08/11 16:40:58;;;;;;;23.67;8.80;;;;;;;24.91;63.60;99266.00;5050053;28;20106;-71
2022/08/11 16:49:03;;;;;;;17.90;8.38;;;;;;;23.08;70.74;99266.38;5070848;28;20144;-72
2022/08/11 16:51:30;;;;;;;24.97;9.40;;;;;;;22.57;73.96;99258.38;5049246;28;20245;-72
2022/08/11 16:53:55;;;;;;;15.32;9.02;;;;;;;22.17;76.10;99260.72;5069571;28;20048;-71
2022/08/11 16:56:26;;;;;;;25.45;8.88;;;;;;;22.76;74.68;99261.84;5069608;28;20446;-72